Hovedside
METAR-TAF:

METAR-TAF

Lufthavner :

Yap, Mikronesia

breddegrad: 09-29N, lengdegrad: 138-05E, høyde over havet: 28 m

Gjeldene værobservasjon

Denne rapporten ble laget for 1 time og 0 minutter siden, klokken 07:50 UTC
Vind 7 kt fra Øst
Temperatur 30°C
Luftfuktighet 79%
Trykk 1009 hPa
Sikt: 19.3 km
Få skyer i en høyde av 1600 ft
Brutte skyer i en høyde av 30000 ft

METAR: PTYA 120750Z 08007KT 12SM FEW016 BKN300 30/26 A2980 RMK SLP093 T02970258

Tid: 18:50 (08:50 UTC)

Varsel

Denne rapporten ble laget for 3 timer og 11 minutter siden, klokken 05:39 UTC
Varsel gyldig fra 12. klokken 06 UTC til 13. klokken 06 UTC
Vind 11 kt fra Øst-nordøst
Sikt: 10 km
Få skyer i en høyde av 1600 ft
Spredte skyer i en høyde av 5000 ft
Spredte skyer i en høyde av 14000 ft
regnbyger i nærheten

TAF: PTYA 120539Z 1206/1306 07011KT P6SM VCSH FEW016 SCT050 SCT140

Værobservasjoner og værvarsel for over 4000 flyplasser (METAR- og TAF-rapporter).

Tilgjengelige stasjoner er representert av de røde og gule prikkene på kartet.

Hold musepekeren over prikken for å se navnet på stasjonen.

Klikk så for å se værobservasjoner og -varsler.

For å forandre kartet kan du klikke på den grønne knappen med svart kryss for å zoome inn, på den grønne knappen med strek for å zoome ut, eller på de grønne pilene for å se tilstøtende kart.


METAR-TAF: